Time;durP1;ratioP1;P1;durP2;ratioP2;P2;SDS_P1;SDS_P2;PMS_P1;PMS_P2;Temp;Humidity;BMP_temperature;BMP_pressure;BME280_temperature;BME280_humidity;BME280_pressure;Samples;Min_cycle;Max_cycle;Signal;HPM_P1;HPM_P2
2022/08/28 00:00:14;;;;;;;8.30;6.25;;;22.30;99.90;;;;;;5064979;28;20190;-75
2022/08/28 00:02:42;;;;;;;10.52;5.65;;;22.20;99.90;;;;;;5110190;27;20201;-75
2022/08/28 00:05:10;;;;;;;7.13;6.13;;;22.20;99.90;;;;;;5079642;28;20187;-75
2022/08/28 00:07:38;;;;;;;14.80;5.95;;;22.10;99.90;;;;;;5075298;28;20648;-75
2022/08/28 00:10:07;;;;;;;13.57;6.35;;;22.10;99.90;;;;;;5081963;28;20201;-76
2022/08/28 00:12:36;;;;;;;12.57;6.60;;;22.10;99.90;;;;;;5073753;28;20205;-76
2022/08/28 00:15:08;;;;;;;7.15;5.50;;;22.10;99.90;;;;;;5112067;27;20612;-73
2022/08/28 00:17:35;;;;;;;8.25;6.07;;;22.10;99.90;;;;;;5067797;28;20195;-75
2022/08/28 00:20:04;;;;;;;9.40;6.07;;;22.10;99.90;;;;;;5071296;28;20772;-76
2022/08/28 00:22:30;;;;;;;7.15;5.70;;;22.10;99.90;;;;;;5091493;28;20189;-76
2022/08/28 00:24:57;;;;;;;10.25;6.63;;;22.10;99.90;;;;;;5095279;28;20259;-74
2022/08/28 00:30:09;;;;;;;9.80;6.97;;;22.10;99.90;;;;;;5105254;28;20197;-76
2022/08/28 00:32:36;;;;;;;9.90;6.65;;;22.00;99.90;;;;;;5072669;28;20294;-75
2022/08/28 00:35:02;;;;;;;11.60;6.50;;;22.00;99.90;;;;;;5089382;28;20675;-73
2022/08/28 00:37:29;;;;;;;13.40;6.30;;;22.00;99.90;;;;;;5090363;28;20194;-73
2022/08/28 00:39:56;;;;;;;12.18;6.35;;;22.00;99.90;;;;;;5114024;27;20183;-73
2022/08/28 00:42:23;;;;;;;12.07;6.70;;;22.00;99.90;;;;;;5084368;28;20231;-76
2022/08/28 00:44:49;;;;;;;12.90;6.25;;;22.00;99.90;;;;;;5064445;28;20229;-73
2022/08/28 00:47:16;;;;;;;7.78;5.80;;;22.00;99.90;;;;;;5070860;28;20174;-75
2022/08/28 00:49:51;;;;;;;14.50;6.70;;;22.00;99.90;;;;;;5084314;28;20186;-75
2022/08/28 00:52:22;;;;;;;12.85;6.40;;;22.00;99.90;;;;;;5072902;28;20206;-75
2022/08/28 00:54:58;;;;;;;7.55;6.07;;;22.00;99.90;;;;;;5089673;28;20232;-75
2022/08/28 00:57:33;;;;;;;8.00;6.03;;;22.00;99.90;;;;;;5088417;28;20681;-75
2022/08/28 01:00:00;;;;;;;9.77;6.45;;;22.00;99.90;;;;;;5118943;27;20228;-75
2022/08/28 01:02:27;;;;;;;8.40;6.25;;;22.00;99.90;;;;;;5089576;28;20627;-75
2022/08/28 01:04:54;;;;;;;14.27;6.63;;;22.00;99.90;;;;;;5073318;28;20197;-75
2022/08/28 01:07:22;;;;;;;8.75;5.72;;;21.90;99.90;;;;;;5086762;28;20193;-75
2022/08/28 01:09:52;;;;;;;12.45;6.68;;;22.00;99.90;;;;;;5090626;28;21013;-75
2022/08/28 01:12:28;;;;;;;9.35;6.50;;;22.00;99.90;;;;;;5083733;28;20214;-75
2022/08/28 01:14:59;;;;;;;10.27;6.22;;;21.90;99.90;;;;;;5115079;27;20178;-75
2022/08/28 01:17:30;;;;;;;7.88;5.97;;;21.90;99.90;;;;;;5100549;28;20349;-75
2022/08/28 01:20:04;;;;;;;11.23;6.20;;;21.90;99.90;;;;;;5083202;28;20186;-75
2022/08/28 01:22:40;;;;;;;8.68;6.78;;;21.90;99.90;;;;;;5106893;28;20192;-75
2022/08/28 01:25:12;;;;;;;11.73;6.53;;;21.90;99.90;;;;;;5122089;27;20192;-75
2022/08/28 01:27:41;;;;;;;9.30;6.30;;;21.90;99.90;;;;;;5096409;28;20191;-75
2022/08/28 01:30:13;;;;;;;8.40;6.28;;;21.90;99.90;;;;;;5088373;28;20182;-75
2022/08/28 01:32:50;;;;;;;11.37;6.30;;;21.90;99.90;;;;;;5093647;28;20218;-75
2022/08/28 01:35:24;;;;;;;12.97;6.90;;;21.90;99.90;;;;;;5090711;28;20194;-75
2022/08/28 01:37:53;;;;;;;8.15;6.75;;;21.80;99.90;;;;;;5088753;28;20270;-75
2022/08/28 01:40:36;;;;;;;8.87;6.50;;;21.80;99.90;;;;;;5095667;28;20186;-75
2022/08/28 01:43:15;;;;;;;7.68;6.68;;;21.80;99.90;;;;;;5088793;28;20186;-75
2022/08/28 01:45:44;;;;;;;11.73;6.97;;;21.80;99.90;;;;;;5112910;27;20572;-76
2022/08/28 01:48:13;;;;;;;8.98;6.00;;;21.80;99.90;;;;;;5110140;27;20752;-75
2022/08/28 01:50:41;;;;;;;9.33;6.63;;;21.80;99.90;;;;;;5067459;28;20186;-75
2022/08/28 01:53:11;;;;;;;9.02;6.80;;;21.80;99.90;;;;;;5102557;28;20186;-75
2022/08/28 01:55:38;;;;;;;10.18;6.78;;;21.80;99.90;;;;;;5122866;28;20174;-75
2022/08/28 01:58:06;;;;;;;11.87;7.03;;;21.70;99.90;;;;;;5098441;28;20178;-75
2022/08/28 02:00:34;;;;;;;10.93;6.75;;;21.70;99.90;;;;;;5121308;27;20710;-75
2022/08/28 02:03:01;;;;;;;9.67;7.23;;;21.70;99.90;;;;;;5089916;28;20201;-74
2022/08/28 02:05:31;;;;;;;9.73;6.80;;;21.70;99.90;;;;;;5118742;27;20234;-75
2022/08/28 02:08:01;;;;;;;10.15;6.30;;;21.70;99.90;;;;;;5115824;27;20540;-75
2022/08/28 02:10:31;;;;;;;8.77;6.80;;;21.60;99.90;;;;;;5079631;28;20638;-75
2022/08/28 02:12:58;;;;;;;10.77;6.35;;;21.60;99.90;;;;;;5094243;28;20211;-75
2022/08/28 02:15:26;;;;;;;9.45;6.40;;;21.60;99.90;;;;;;5076098;28;20183;-74
2022/08/28 02:17:54;;;;;;;11.93;6.78;;;21.60;99.90;;;;;;5060250;28;20194;-75
2022/08/28 02:20:22;;;;;;;10.33;7.20;;;21.70;99.90;;;;;;5075543;28;20185;-74
2022/08/28 02:22:48;;;;;;;9.03;7.13;;;21.70;99.90;;;;;;5099173;28;20182;-75
2022/08/28 02:25:16;;;;;;;12.05;7.32;;;21.70;99.90;;;;;;5108195;27;20232;-74
2022/08/28 02:27:43;;;;;;;8.82;7.03;;;21.60;99.90;;;;;;5070999;28;20197;-75
2022/08/28 02:30:13;;;;;;;9.98;7.10;;;21.60;99.90;;;;;;5093552;28;20730;-74
2022/08/28 02:32:39;;;;;;;10.65;7.93;;;21.60;99.90;;;;;;5119621;27;20262;-75
2022/08/28 02:35:09;;;;;;;12.65;7.30;;;21.60;99.90;;;;;;5089638;28;20886;-74
2022/08/28 02:37:38;;;;;;;11.38;7.07;;;21.60;99.90;;;;;;5071091;28;20701;-75
2022/08/28 02:40:07;;;;;;;12.35;7.47;;;21.60;99.90;;;;;;5129415;27;20178;-75
2022/08/28 02:42:33;;;;;;;12.27;7.80;;;21.60;99.90;;;;;;5106666;28;21085;-75
2022/08/28 02:45:00;;;;;;;9.77;7.65;;;21.60;99.90;;;;;;5071961;28;20190;-75
2022/08/28 02:47:27;;;;;;;13.77;8.18;;;21.60;99.90;;;;;;5093424;28;20278;-75
2022/08/28 02:49:54;;;;;;;10.48;7.85;;;21.60;99.90;;;;;;5076960;28;20186;-75
2022/08/28 02:52:22;;;;;;;9.60;7.50;;;21.60;99.90;;;;;;5095244;28;20544;-75
2022/08/28 02:54:48;;;;;;;12.18;8.38;;;21.60;99.90;;;;;;5094680;28;20304;-75
2022/08/28 02:57:15;;;;;;;10.23;7.33;;;21.60;99.90;;;;;;5128684;27;20227;-75
2022/08/28 02:59:42;;;;;;;11.87;7.80;;;21.50;99.90;;;;;;5111561;28;20183;-75
2022/08/28 03:02:09;;;;;;;10.77;7.63;;;21.50;99.90;;;;;;5077911;28;20185;-75
2022/08/28 03:04:37;;;;;;;12.52;8.05;;;21.50;99.90;;;;;;5077856;28;20204;-75
2022/08/28 03:07:08;;;;;;;13.33;7.57;;;21.50;99.90;;;;;;5111684;28;20182;-75
2022/08/28 03:09:35;;;;;;;10.50;7.80;;;21.50;99.90;;;;;;5099444;28;20280;-74
2022/08/28 03:12:01;;;;;;;12.33;8.20;;;21.50;99.90;;;;;;5115697;28;20690;-75
2022/08/28 03:14:28;;;;;;;10.27;7.93;;;21.50;99.90;;;;;;5098205;28;20186;-75
2022/08/28 03:16:55;;;;;;;10.10;8.10;;;21.40;99.90;;;;;;5103630;28;20194;-75
2022/08/28 03:19:23;;;;;;;10.30;7.87;;;21.40;99.90;;;;;;5109782;28;20212;-75
2022/08/28 03:21:49;;;;;;;15.63;8.47;;;21.40;99.90;;;;;;5094019;28;20190;-75
2022/08/28 03:24:15;;;;;;;9.13;8.18;;;21.40;99.90;;;;;;5093917;28;20188;-75
2022/08/28 03:26:42;;;;;;;9.70;7.60;;;21.30;99.90;;;;;;5079091;28;20220;-75
2022/08/28 03:29:09;;;;;;;9.50;8.40;;;21.40;99.90;;;;;;5092478;28;20186;-75
2022/08/28 03:31:37;;;;;;;11.88;8.40;;;21.40;99.90;;;;;;5076357;28;20693;-74
2022/08/28 03:34:05;;;;;;;11.18;8.25;;;21.40;99.90;;;;;;5111585;28;20200;-75
2022/08/28 03:36:33;;;;;;;10.87;8.20;;;21.50;99.90;;;;;;5108107;28;20201;-74
2022/08/28 03:39:03;;;;;;;10.93;8.97;;;21.50;99.90;;;;;;5094190;28;20186;-75
2022/08/28 03:41:31;;;;;;;12.05;8.60;;;21.50;99.90;;;;;;5077153;28;20212;-75
2022/08/28 03:44:00;;;;;;;10.90;8.00;;;21.50;99.90;;;;;;5074676;28;20214;-75
2022/08/28 03:46:33;;;;;;;11.83;8.67;;;21.50;99.90;;;;;;5073685;28;20651;-75
2022/08/28 03:49:03;;;;;;;10.43;8.07;;;21.50;99.90;;;;;;5075826;28;20186;-75
2022/08/28 03:51:33;;;;;;;11.43;8.85;;;21.50;99.90;;;;;;5092992;28;20741;-75
2022/08/28 03:54:02;;;;;;;9.87;7.90;;;21.50;99.90;;;;;;5077046;28;20635;-75
2022/08/28 03:56:31;;;;;;;10.90;7.45;;;21.60;99.90;;;;;;5090903;28;20548;-75
2022/08/28 03:59:00;;;;;;;12.53;7.47;;;21.60;99.90;;;;;;5109733;28;20181;-75
2022/08/28 04:01:26;;;;;;;12.63;7.87;;;21.60;99.90;;;;;;5074997;28;20194;-75
2022/08/28 04:03:53;;;;;;;10.93;7.85;;;21.60;99.90;;;;;;5076795;28;20185;-75
2022/08/28 04:06:19;;;;;;;11.05;7.38;;;21.50;99.90;;;;;;5077090;28;20186;-75
2022/08/28 04:08:46;;;;;;;8.37;7.03;;;21.40;99.90;;;;;;5076393;28;20269;-75
2022/08/28 04:11:13;;;;;;;12.73;7.57;;;21.40;99.90;;;;;;5075536;28;20672;-75
2022/08/28 04:13:40;;;;;;;10.00;7.67;;;21.40;99.90;;;;;;5110399;28;20202;-75
2022/08/28 04:16:13;;;;;;;8.13;7.37;;;21.40;99.90;;;;;;5093459;28;20273;-75
2022/08/28 04:18:42;;;;;;;11.47;7.97;;;21.50;99.90;;;;;;5105573;28;20673;-75
2022/08/28 04:21:17;;;;;;;8.57;7.43;;;21.50;99.90;;;;;;5113305;28;20647;-75
2022/08/28 04:23:46;;;;;;;8.50;7.40;;;21.50;99.90;;;;;;5112878;28;20177;-75
2022/08/28 04:26:21;;;;;;;8.90;7.43;;;21.50;99.90;;;;;;5113086;28;20182;-75
2022/08/28 04:28:49;;;;;;;9.43;7.70;;;21.60;99.90;;;;;;5090309;27;20236;-75
2022/08/28 04:31:17;;;;;;;12.67;8.50;;;21.60;99.90;;;;;;5055733;28;20203;-75
2022/08/28 04:33:43;;;;;;;10.05;8.98;;;21.60;99.90;;;;;;5072499;28;20183;-75
2022/08/28 04:36:15;;;;;;;8.55;7.47;;;21.60;99.90;;;;;;5102277;28;20185;-74
2022/08/28 04:38:43;;;;;;;12.23;8.27;;;21.60;99.90;;;;;;5109717;28;20182;-74
2022/08/28 04:41:13;;;;;;;12.47;8.33;;;21.70;99.90;;;;;;5109880;28;20356;-74
2022/08/28 04:43:40;;;;;;;10.60;8.13;;;21.70;99.90;;;;;;5127024;27;20583;-74
2022/08/28 04:46:11;;;;;;;9.55;8.65;;;21.70;99.90;;;;;;5127793;27;20269;-75
2022/08/28 04:48:39;;;;;;;10.95;8.65;;;21.70;99.90;;;;;;5109441;28;20289;-75
2022/08/28 04:51:09;;;;;;;12.32;8.65;;;21.70;99.90;;;;;;5109766;28;20734;-75
2022/08/28 04:53:38;;;;;;;9.82;8.63;;;21.80;99.90;;;;;;5054637;28;20202;-75
2022/08/28 04:56:09;;;;;;;10.20;8.60;;;21.80;99.90;;;;;;5054979;28;20246;-75
2022/08/28 04:58:37;;;;;;;11.87;8.73;;;21.90;99.90;;;;;;5071827;28;20268;-75
2022/08/28 05:01:17;;;;;;;9.30;8.33;;;22.00;99.90;;;;;;5055813;28;20175;-75
2022/08/28 05:03:47;;;;;;;10.88;9.10;;;22.00;99.90;;;;;;5055541;28;20206;-75
2022/08/28 05:06:15;;;;;;;13.48;9.02;;;22.00;99.90;;;;;;5071975;28;20187;-75
2022/08/28 05:08:42;;;;;;;11.65;9.35;;;22.10;99.90;;;;;;5066023;28;20271;-75
2022/08/28 05:11:18;;;;;;;11.40;8.88;;;22.10;99.90;;;;;;5095206;28;20297;-75
2022/08/28 05:13:44;;;;;;;12.75;8.85;;;22.10;99.90;;;;;;5093783;28;20178;-75
2022/08/28 05:16:11;;;;;;;13.88;9.00;;;22.20;99.90;;;;;;5092602;28;20186;-75
2022/08/28 05:18:38;;;;;;;11.00;9.20;;;22.20;99.90;;;;;;5124055;27;20190;-75
2022/08/28 05:21:13;;;;;;;11.77;8.10;;;22.30;99.90;;;;;;5109227;28;20294;-75
2022/08/28 05:23:43;;;;;;;8.70;7.82;;;22.30;99.90;;;;;;5092561;28;20539;-75
2022/08/28 05:26:15;;;;;;;12.38;8.00;;;22.30;99.90;;;;;;5101541;28;20196;-75
2022/08/28 05:28:42;;;;;;;13.43;8.85;;;22.40;99.90;;;;;;5090376;28;20178;-76
2022/08/28 05:31:11;;;;;;;9.90;8.15;;;22.50;99.90;;;;;;5055662;28;20222;-75
2022/08/28 05:33:38;;;;;;;10.20;8.68;;;22.60;99.90;;;;;;5072136;28;20191;-75
2022/08/28 05:36:06;;;;;;;8.82;7.40;;;22.60;99.90;;;;;;5060053;28;20177;-75
2022/08/28 05:38:34;;;;;;;11.15;7.32;;;22.60;99.90;;;;;;5093326;28;20208;-75
2022/08/28 05:41:02;;;;;;;10.82;7.90;;;22.60;99.90;;;;;;5108590;28;20257;-75
2022/08/28 05:43:30;;;;;;;10.23;7.85;;;22.70;99.90;;;;;;5104478;28;20186;-75
2022/08/28 05:46:09;;;;;;;10.20;7.93;;;22.70;99.90;;;;;;5112749;28;20173;-74
2022/08/28 05:48:38;;;;;;;9.38;7.40;;;22.80;99.90;;;;;;5112429;28;20173;-75
2022/08/28 05:51:19;;;;;;;9.15;7.00;;;22.80;99.90;;;;;;5095205;28;20185;-75
2022/08/28 05:53:48;;;;;;;11.40;7.72;;;22.90;99.90;;;;;;5116047;27;20244;-75
2022/08/28 05:56:21;;;;;;;11.75;7.18;;;22.90;99.90;;;;;;5090473;28;20207;-75
2022/08/28 05:58:47;;;;;;;9.65;7.70;;;23.00;99.90;;;;;;5108016;28;20598;-77
2022/08/28 06:01:21;;;;;;;8.40;7.60;;;23.00;99.90;;;;;;5089914;28;20209;-77
2022/08/28 06:03:56;;;;;;;13.70;7.07;;;23.00;99.90;;;;;;5125897;27;20219;-76
2022/08/28 06:06:25;;;;;;;12.43;7.15;;;23.10;99.90;;;;;;5116869;28;20179;-77
2022/08/28 06:09:03;;;;;;;7.60;6.63;;;23.10;99.90;;;;;;5133477;27;20687;-76
2022/08/28 06:11:30;;;;;;;9.27;6.43;;;23.20;99.90;;;;;;5101403;28;20209;-74
2022/08/28 06:14:00;;;;;;;6.82;6.13;;;23.20;99.90;;;;;;5113260;28;20190;-76
2022/08/28 06:16:28;;;;;;;6.60;4.85;;;23.30;99.90;;;;;;5115663;28;20182;-77
2022/08/28 06:18:56;;;;;;;6.72;4.80;;;23.30;99.90;;;;;;5116398;28;20185;-76
2022/08/28 06:21:23;;;;;;;9.88;4.55;;;23.60;99.90;;;;;;5116456;28;20200;-77
2022/08/28 06:23:50;;;;;;;6.03;4.30;;;23.60;99.90;;;;;;5117824;28;20185;-76
2022/08/28 06:26:17;;;;;;;5.15;4.20;;;23.60;99.90;;;;;;5115988;28;20546;-74
2022/08/28 06:28:44;;;;;;;7.75;4.90;;;23.60;99.90;;;;;;5115810;28;20182;-77
2022/08/28 06:31:11;;;;;;;5.50;4.53;;;23.70;99.90;;;;;;5100150;28;20285;-76
2022/08/28 06:33:39;;;;;;;7.53;5.03;;;23.80;99.90;;;;;;5075099;28;20916;-76
2022/08/28 06:36:10;;;;;;;7.05;5.00;;;23.90;99.90;;;;;;5082176;28;20287;-74
2022/08/28 06:38:36;;;;;;;9.57;4.88;;;24.00;99.90;;;;;;5075153;28;20186;-76
2022/08/28 06:41:08;;;;;;;9.60;5.47;;;24.20;99.90;;;;;;5091894;28;20175;-74
2022/08/28 06:43:36;;;;;;;5.30;4.80;;;24.30;99.90;;;;;;5092447;28;20698;-76
2022/08/28 06:46:06;;;;;;;5.68;5.05;;;24.30;99.90;;;;;;5092262;28;20232;-76
2022/08/28 06:48:33;;;;;;;7.97;5.07;;;24.40;99.90;;;;;;5077881;28;20632;-77
2022/08/28 06:51:00;;;;;;;6.53;4.43;;;24.50;99.90;;;;;;5103475;28;20181;-77
2022/08/28 06:53:29;;;;;;;7.45;4.50;;;24.50;99.90;;;;;;5096561;28;20182;-77
2022/08/28 06:56:17;;;;;;;6.25;4.72;;;24.50;99.90;;;;;;5077430;28;20178;-76
2022/08/28 06:58:48;;;;;;;9.15;5.00;;;24.60;99.90;;;;;;5127828;27;20181;-76
2022/08/28 07:01:29;;;;;;;6.05;4.82;;;24.80;99.90;;;;;;5094277;28;20194;-76
2022/08/28 07:04:02;;;;;;;6.38;4.57;;;24.90;99.90;;;;;;5066126;28;20204;-76
2022/08/28 07:06:44;;;;;;;7.43;4.78;;;25.00;99.90;;;;;;5085826;28;21067;-76
2022/08/28 07:09:10;;;;;;;7.40;5.47;;;25.10;99.90;;;;;;5077195;28;20192;-76
2022/08/28 07:11:38;;;;;;;8.07;5.32;;;25.20;99.90;;;;;;5088881;28;20286;-76
2022/08/28 07:14:06;;;;;;;7.13;5.25;;;25.30;99.90;;;;;;5091851;28;20205;-73
2022/08/28 07:16:39;;;;;;;7.30;5.43;;;25.30;99.90;;;;;;5093870;28;20201;-76
2022/08/28 07:19:11;;;;;;;7.45;5.07;;;25.40;99.90;;;;;;5076751;28;20258;-76
2022/08/28 07:21:42;;;;;;;8.07;5.35;;;25.50;99.90;;;;;;5128350;27;20516;-76
2022/08/28 07:24:13;;;;;;;10.55;5.25;;;25.60;99.90;;;;;;5076682;28;20211;-76
2022/08/28 07:26:42;;;;;;;8.88;5.35;;;25.70;99.90;;;;;;5108257;28;20892;-76
2022/08/28 07:29:09;;;;;;;8.23;5.30;;;25.80;99.90;;;;;;5120356;27;20182;-76
2022/08/28 07:31:41;;;;;;;8.27;5.03;;;25.80;99.90;;;;;;5092217;28;20218;-76
2022/08/28 07:34:14;;;;;;;9.93;5.00;;;25.80;99.90;;;;;;5094275;28;20178;-76
2022/08/28 07:36:42;;;;;;;8.45;5.15;;;25.90;99.90;;;;;;5073328;28;20217;-76
2022/08/28 07:39:11;;;;;;;7.72;4.43;;;26.00;99.90;;;;;;5094670;28;20189;-76
2022/08/28 07:41:41;;;;;;;7.63;4.40;;;26.10;99.90;;;;;;5071762;28;20217;-76
2022/08/28 07:47:02;;;;;;;7.90;4.30;;;26.20;99.90;;;;;;5089517;28;20281;-76
2022/08/28 07:49:32;;;;;;;5.25;4.10;;;26.30;99.90;;;;;;5093272;28;20236;-76
2022/08/28 07:51:59;;;;;;;7.03;4.63;;;26.30;99.90;;;;;;5110137;28;20681;-74
2022/08/28 07:54:26;;;;;;;8.18;4.70;;;26.40;99.90;;;;;;5107747;28;20209;-74
2022/08/28 07:56:53;;;;;;;8.48;4.53;;;26.50;99.90;;;;;;5071686;28;20659;-74
2022/08/28 07:59:20;;;;;;;8.20;4.80;;;26.50;99.90;;;;;;5072999;28;20630;-74
2022/08/28 08:01:52;;;;;;;5.65;4.63;;;26.50;99.90;;;;;;5083044;28;20273;-76
2022/08/28 08:04:20;;;;;;;7.13;4.22;;;26.60;99.90;;;;;;5099825;28;20186;-77
2022/08/28 08:06:46;;;;;;;6.55;4.32;;;26.60;99.90;;;;;;5068538;28;20194;-74
2022/08/28 08:09:16;;;;;;;7.78;4.60;;;26.70;99.90;;;;;;5070894;28;20209;-75
2022/08/28 08:11:44;;;;;;;7.22;4.30;;;26.70;99.90;;;;;;5073950;28;20246;-76
2022/08/28 08:14:11;;;;;;;9.73;4.78;;;26.80;99.90;;;;;;5118728;27;20183;-78
2022/08/28 08:16:42;;;;;;;12.15;5.05;;;26.80;99.90;;;;;;5075533;28;20632;-75
2022/08/28 08:19:14;;;;;;;9.50;4.50;;;27.00;99.90;;;;;;5108649;28;20182;-74
2022/08/28 08:21:44;;;;;;;7.00;4.75;;;27.00;99.90;;;;;;5126390;27;20175;-75
2022/08/28 08:24:14;;;;;;;7.50;4.38;;;27.10;99.90;;;;;;5109003;28;20185;-75
2022/08/28 08:26:44;;;;;;;8.88;4.68;;;27.20;99.90;;;;;;5102064;28;20207;-75
2022/08/28 08:29:13;;;;;;;6.20;4.07;;;27.20;99.90;;;;;;5086529;28;20612;-74
2022/08/28 08:31:39;;;;;;;6.93;4.05;;;27.20;99.90;;;;;;5117485;27;20206;-75
2022/08/28 08:34:06;;;;;;;9.88;4.10;;;27.30;99.90;;;;;;5088629;28;20231;-75
2022/08/28 08:36:36;;;;;;;9.15;4.10;;;27.30;99.90;;;;;;5095793;28;20183;-74
2022/08/28 08:39:07;;;;;;;5.82;4.00;;;27.40;99.90;;;;;;5083783;28;20269;-74
2022/08/28 08:41:50;;;;;;;6.95;3.75;;;27.40;99.90;;;;;;5081877;28;20187;-74
2022/08/28 08:44:43;;;;;;;7.10;3.60;;;27.50;99.90;;;;;;5088839;28;20536;-74
2022/08/28 08:47:37;;;;;;;6.30;3.65;;;27.50;99.90;;;;;;5095865;28;20193;-75
2022/08/28 08:50:20;;;;;;;6.95;4.00;;;27.70;99.90;;;;;;5077644;28;20205;-75
2022/08/28 08:53:18;;;;;;;7.32;3.65;;;27.60;99.90;;;;;;5090092;28;20221;-74
2022/08/28 08:55:52;;;;;;;6.88;3.60;;;27.70;99.90;;;;;;5081322;28;20640;-75
2022/08/28 08:58:41;;;;;;;5.93;3.22;;;27.70;99.90;;;;;;5107685;28;20214;-75
2022/08/28 09:01:22;;;;;;;9.32;3.50;;;27.80;99.90;;;;;;5126030;27;20170;-74
2022/08/28 09:04:38;;;;;;;4.07;3.15;;;27.80;99.90;;;;;;5101283;28;20292;-77
2022/08/28 09:07:43;;;;;;;7.43;3.00;;;27.80;99.90;;;;;;5099464;28;20185;-74
2022/08/28 09:10:13;;;;;;;5.93;3.58;;;27.70;99.90;;;;;;5111263;27;20215;-75
2022/08/28 09:13:25;;;;;;;6.07;3.58;;;27.70;99.90;;;;;;5075466;28;20297;-74
2022/08/28 09:15:52;;;;;;;9.45;3.45;;;27.90;99.90;;;;;;5107517;27;20174;-75
2022/08/28 09:18:32;;;;;;;6.28;3.38;;;28.10;99.90;;;;;;5091016;28;20202;-75
2022/08/28 09:21:00;;;;;;;8.63;3.00;;;28.20;99.90;;;;;;5108976;28;20182;-74
2022/08/28 09:23:28;;;;;;;8.40;3.70;;;28.20;99.90;;;;;;5106652;27;20585;-75
2022/08/28 09:26:10;;;;;;;6.93;3.50;;;28.30;99.90;;;;;;5072624;28;20178;-75
2022/08/28 09:28:41;;;;;;;4.60;2.95;;;28.40;99.90;;;;;;5040623;28;20210;-75
2022/08/28 09:31:33;;;;;;;8.57;3.25;;;28.50;99.90;;;;;;5077536;28;20734;-77
2022/08/28 09:34:38;;;;;;;7.95;3.25;;;28.50;99.90;;;;;;5118536;27;20232;-75
2022/08/28 09:37:07;;;;;;;9.25;3.40;;;28.60;99.90;;;;;;5055433;28;20187;-76
2022/08/28 09:39:35;;;;;;;5.60;3.50;;;28.50;99.90;;;;;;5027659;28;20212;-78
2022/08/28 09:45:20;;;;;;;8.45;3.53;;;28.80;99.90;;;;;;5076530;28;20179;-75
2022/08/28 09:47:57;;;;;;;7.43;3.38;;;28.80;99.90;;;;;;5093349;28;20197;-75
2022/08/28 09:50:30;;;;;;;9.55;3.13;;;28.70;99.90;;;;;;5072698;28;20280;-75
2022/08/28 09:53:21;;;;;;;6.53;3.08;;;28.90;99.90;;;;;;5077940;28;20233;-74
2022/08/28 09:56:14;;;;;;;6.28;3.30;;;29.00;99.90;;;;;;5105560;28;20174;-76
2022/08/28 09:58:56;;;;;;;7.00;3.00;;;29.10;99.90;;;;;;5085442;28;20178;-76
2022/08/28 10:01:59;;;;;;;9.38;3.17;;;29.10;99.90;;;;;;5094994;28;20236;-75
2022/08/28 10:05:15;;;;;;;4.93;2.90;;;29.30;99.90;;;;;;5067742;28;20185;-76
2022/08/28 10:08:05;;;;;;;6.55;3.40;;;29.20;99.90;;;;;;5092129;28;20191;-76
2022/08/28 10:10:52;;;;;;;7.63;3.10;;;29.40;99.90;;;;;;5080837;28;20292;-75
2022/08/28 10:13:40;;;;;;;6.65;3.08;;;29.50;99.90;;;;;;5101418;28;20225;-75
2022/08/28 10:16:24;;;;;;;5.70;2.95;;;29.40;99.90;;;;;;5104216;28;20194;-76
2022/08/28 10:19:21;;;;;;;8.75;3.45;;;29.50;99.90;;;;;;5107883;28;20193;-76
2022/08/28 10:22:24;;;;;;;6.57;3.00;;;29.70;99.90;;;;;;5086906;28;20194;-80
2022/08/28 10:25:29;;;;;;;8.80;3.40;;;30.00;99.90;;;;;;5105075;28;20530;-77
2022/08/28 10:28:07;;;;;;;10.18;3.25;;;29.80;99.90;;;;;;5070091;28;20251;-76
2022/08/28 10:30:50;;;;;;;8.05;3.10;;;29.70;99.90;;;;;;5076042;28;20221;-76
2022/08/28 10:33:35;;;;;;;7.13;2.88;;;29.80;99.90;;;;;;5100381;28;20194;-76
2022/08/28 10:36:20;;;;;;;5.90;2.95;;;29.70;99.90;;;;;;5070768;28;20191;-75
2022/08/28 10:39:40;;;;;;;5.22;2.80;;;29.50;99.90;;;;;;5084419;28;20186;-75
2022/08/28 10:42:07;;;;;;;6.80;2.95;;;29.60;99.90;;;;;;5091940;27;20969;-75
2022/08/28 10:44:48;;;;;;;10.48;3.00;;;29.70;99.90;;;;;;5055919;28;20235;-79
2022/08/28 10:47:18;;;;;;;4.82;2.70;;;29.70;99.90;;;;;;5062206;28;20190;-76
2022/08/28 10:49:50;;;;;;;6.88;3.30;;;29.40;99.90;;;;;;5081746;28;20174;-75
2022/08/28 10:52:39;;;;;;;5.45;3.10;;;29.40;99.90;;;;;;5053532;28;20213;-76
2022/08/28 10:55:21;;;;;;;6.03;3.30;;;29.50;99.90;;;;;;5101314;28;20186;-76
2022/08/28 10:58:02;;;;;;;12.35;3.40;;;29.60;99.90;;;;;;5121918;27;20254;-76
2022/08/28 11:00:31;;;;;;;8.10;3.38;;;29.50;99.90;;;;;;5078822;28;20512;-76
2022/08/28 11:03:09;;;;;;;9.50;3.50;;;29.40;99.90;;;;;;5093431;28;20178;-76
2022/08/28 11:05:55;;;;;;;7.70;3.70;;;29.30;99.90;;;;;;5073437;28;20786;-76
2022/08/28 11:08:35;;;;;;;7.63;3.47;;;29.30;99.90;;;;;;5080337;28;20201;-76
2022/08/28 11:11:05;;;;;;;14.52;3.67;;;29.50;99.90;;;;;;5102595;28;20209;-76
2022/08/28 11:14:00;;;;;;;7.70;3.60;;;29.40;99.90;;;;;;5104365;28;20189;-76
2022/08/28 11:16:29;;;;;;;10.20;3.70;;;29.60;99.90;;;;;;5111106;28;20222;-77
2022/08/28 11:19:24;;;;;;;7.18;3.28;;;29.50;99.90;;;;;;5083804;28;20628;-77
2022/08/28 11:22:13;;;;;;;9.27;3.88;;;29.40;99.90;;;;;;5094114;28;20195;-76
2022/08/28 11:24:42;;;;;;;8.93;3.42;;;29.30;99.90;;;;;;5088591;28;20186;-76
2022/08/28 11:27:33;;;;;;;8.32;4.43;;;29.50;99.90;;;;;;5077890;28;20235;-77
2022/08/28 11:30:15;;;;;;;9.45;4.22;;;29.30;99.90;;;;;;5105552;28;20229;-76
2022/08/28 11:32:51;;;;;;;6.13;3.42;;;29.20;99.90;;;;;;5074311;28;20206;-76
2022/08/28 11:35:27;;;;;;;8.40;3.65;;;29.30;99.90;;;;;;5089404;28;20276;-77
2022/08/28 11:37:55;;;;;;;9.25;4.18;;;29.30;99.90;;;;;;5075207;28;20197;-76
2022/08/28 11:40:35;;;;;;;10.90;4.05;;;29.30;99.90;;;;;;5080751;28;20220;-76
2022/08/28 11:43:13;;;;;;;6.22;3.47;;;29.30;99.90;;;;;;5086483;28;20719;-76
2022/08/28 11:45:46;;;;;;;9.18;3.95;;;29.30;99.90;;;;;;5086242;28;20198;-76
2022/08/28 11:48:38;;;;;;;8.90;3.30;;;29.30;99.90;;;;;;5090534;28;20272;-76
2022/08/28 11:51:16;;;;;;;8.60;3.75;;;29.30;99.90;;;;;;5090600;28;20197;-76
2022/08/28 11:54:27;;;;;;;11.23;3.60;;;29.40;99.90;;;;;;5084593;28;20194;-76
2022/08/28 11:57:16;;;;;;;10.32;4.20;;;29.20;99.90;;;;;;5120648;27;20190;-76
2022/08/28 12:00:19;;;;;;;7.65;3.55;;;29.20;99.90;;;;;;5089584;28;20171;-76
2022/08/28 12:02:52;;;;;;;8.13;3.22;;;29.30;99.90;;;;;;5061113;28;20356;-75
2022/08/28 12:05:21;;;;;;;8.85;3.60;;;29.20;99.90;;;;;;5125455;27;20190;-77
2022/08/28 12:07:50;;;;;;;9.18;3.63;;;29.10;99.90;;;;;;5095454;28;20274;-76
2022/08/28 12:10:19;;;;;;;8.68;3.85;;;29.20;99.90;;;;;;5104134;28;20194;-76
2022/08/28 12:12:46;;;;;;;7.72;3.55;;;29.10;99.90;;;;;;5112687;27;20210;-75
2022/08/28 12:15:27;;;;;;;10.25;3.78;;;29.20;99.90;;;;;;5086211;28;20635;-77
2022/08/28 12:18:09;;;;;;;8.68;3.50;;;29.20;99.90;;;;;;5091578;28;20198;-76
2022/08/28 12:20:49;;;;;;;5.63;3.25;;;29.20;99.90;;;;;;5086169;28;20282;-77
2022/08/28 12:23:22;;;;;;;8.60;3.95;;;29.00;99.90;;;;;;5083537;28;20193;-77
2022/08/28 12:26:00;;;;;;;8.70;3.47;;;29.10;99.90;;;;;;5089655;28;20194;-76
2022/08/28 12:29:16;;;;;;;8.40;3.42;;;29.10;99.90;;;;;;5073304;28;20190;-76
2022/08/28 12:32:17;;;;;;;10.25;3.70;;;29.20;99.90;;;;;;5062604;28;20209;-76
2022/08/28 12:34:59;;;;;;;10.32;3.45;;;29.20;99.90;;;;;;5102079;28;20186;-76
2022/08/28 12:37:38;;;;;;;9.48;3.60;;;29.20;99.90;;;;;;5066235;28;20269;-76
2022/08/28 12:40:28;;;;;;;5.55;3.20;;;29.20;99.90;;;;;;5070155;28;20209;-75
2022/08/28 12:43:08;;;;;;;8.32;3.65;;;29.20;99.90;;;;;;5075815;28;20206;-75
2022/08/28 12:45:54;;;;;;;10.35;3.40;;;29.20;99.90;;;;;;5078173;28;20264;-75
2022/08/28 12:48:52;;;;;;;9.38;3.60;;;29.10;99.90;;;;;;5077541;28;20170;-75
2022/08/28 12:51:36;;;;;;;7.93;3.65;;;29.00;99.90;;;;;;5095110;28;20182;-75
2022/08/28 12:54:07;;;;;;;7.05;3.50;;;28.90;99.90;;;;;;5078341;28;20178;-75
2022/08/28 12:56:37;;;;;;;9.52;3.40;;;29.00;99.90;;;;;;5077809;28;20249;-75
2022/08/28 12:59:32;;;;;;;9.65;3.58;;;29.10;99.90;;;;;;5090777;28;20251;-75
2022/08/28 13:02:26;;;;;;;13.15;3.60;;;29.00;99.90;;;;;;5093545;28;20186;-75
2022/08/28 13:05:00;;;;;;;5.88;3.20;;;29.00;99.90;;;;;;5095460;28;20185;-75
2022/08/28 13:07:39;;;;;;;6.38;3.50;;;28.90;99.90;;;;;;5077937;28;20182;-76
2022/08/28 13:10:25;;;;;;;9.68;3.47;;;28.70;99.90;;;;;;5110266;28;20192;-76
2022/08/28 13:13:06;;;;;;;10.93;4.00;;;28.70;99.90;;;;;;5110153;28;20209;-75
2022/08/28 13:15:50;;;;;;;10.40;4.05;;;28.70;99.90;;;;;;5110253;28;20661;-75
2022/08/28 13:18:51;;;;;;;7.15;3.38;;;28.70;99.90;;;;;;5076541;28;20193;-76
2022/08/28 13:21:17;;;;;;;8.05;3.67;;;28.50;99.90;;;;;;5110139;28;20189;-75
2022/08/28 13:23:52;;;;;;;7.53;3.42;;;28.50;99.90;;;;;;5077700;28;20184;-75
2022/08/28 13:26:39;;;;;;;7.85;3.30;;;28.60;99.90;;;;;;5093277;28;20180;-75